sensor_id;sensor_type;location;lat;lon;timestamp;P1;durP1;ratioP1;P2;durP2;ratioP2
61085;SDS011;46967;48.876;2.136;2022-09-27T00:01:56;4.57;;;1.10;;
61085;SDS011;46967;48.876;2.136;2022-09-27T00:04:22;4.20;;;1.50;;
61085;SDS011;46967;48.876;2.136;2022-09-27T00:06:47;6.00;;;1.50;;
61085;SDS011;46967;48.876;2.136;2022-09-27T00:09:13;7.30;;;1.63;;
61085;SDS011;46967;48.876;2.136;2022-09-27T00:11:39;5.63;;;1.70;;
61085;SDS011;46967;48.876;2.136;2022-09-27T00:14:07;9.82;;;1.60;;
61085;SDS011;46967;48.876;2.136;2022-09-27T00:16:34;5.18;;;1.60;;
61085;SDS011;46967;48.876;2.136;2022-09-27T00:19:02;8.40;;;1.90;;
61085;SDS011;46967;48.876;2.136;2022-09-27T00:21:29;6.07;;;1.60;;
61085;SDS011;46967;48.876;2.136;2022-09-27T00:23:56;10.85;;;2.10;;
61085;SDS011;46967;48.876;2.136;2022-09-27T00:26:23;8.15;;;1.83;;
61085;SDS011;46967;48.876;2.136;2022-09-27T00:28:48;11.63;;;1.92;;
61085;SDS011;46967;48.876;2.136;2022-09-27T00:31:18;9.40;;;1.52;;
61085;SDS011;46967;48.876;2.136;2022-09-27T00:33:48;6.75;;;1.65;;
61085;SDS011;46967;48.876;2.136;2022-09-27T00:36:16;7.50;;;1.98;;
61085;SDS011;46967;48.876;2.136;2022-09-27T00:38:42;7.45;;;1.70;;
61085;SDS011;46967;48.876;2.136;2022-09-27T00:41:11;10.27;;;2.50;;
61085;SDS011;46967;48.876;2.136;2022-09-27T00:43:51;8.88;;;1.88;;
61085;SDS011;46967;48.876;2.136;2022-09-27T00:46:46;9.30;;;1.60;;
61085;SDS011;46967;48.876;2.136;2022-09-27T00:49:45;11.30;;;1.73;;
61085;SDS011;46967;48.876;2.136;2022-09-27T00:52:30;9.82;;;1.73;;
61085;SDS011;46967;48.876;2.136;2022-09-27T00:57:35;11.32;;;1.73;;
61085;SDS011;46967;48.876;2.136;2022-09-27T01:00:03;5.35;;;1.13;;
61085;SDS011;46967;48.876;2.136;2022-09-27T01:02:31;5.68;;;1.77;;
61085;SDS011;46967;48.876;2.136;2022-09-27T01:04:59;5.55;;;1.58;;
61085;SDS011;46967;48.876;2.136;2022-09-27T01:07:25;11.73;;;1.83;;
61085;SDS011;46967;48.876;2.136;2022-09-27T01:09:50;6.40;;;1.23;;
61085;SDS011;46967;48.876;2.136;2022-09-27T01:17:50;8.65;;;1.67;;
61085;SDS011;46967;48.876;2.136;2022-09-27T01:31:26;8.30;;;1.50;;
61085;SDS011;46967;48.876;2.136;2022-09-27T01:36:51;10.52;;;1.67;;
61085;SDS011;46967;48.876;2.136;2022-09-27T01:42:07;7.13;;;1.55;;
61085;SDS011;46967;48.876;2.136;2022-09-27T01:48:08;7.00;;;1.33;;
61085;SDS011;46967;48.876;2.136;2022-09-27T01:50:39;7.15;;;1.25;;
61085;SDS011;46967;48.876;2.136;2022-09-27T01:53:21;4.65;;;1.25;;
61085;SDS011;46967;48.876;2.136;2022-09-27T01:55:51;7.70;;;1.30;;
61085;SDS011;46967;48.876;2.136;2022-09-27T01:58:24;5.25;;;1.38;;
61085;SDS011;46967;48.876;2.136;2022-09-27T02:00:54;9.30;;;1.48;;
61085;SDS011;46967;48.876;2.136;2022-09-27T02:03:25;8.35;;;1.27;;
61085;SDS011;46967;48.876;2.136;2022-09-27T02:05:56;5.85;;;0.98;;
61085;SDS011;46967;48.876;2.136;2022-09-27T02:11:04;4.38;;;1.15;;
61085;SDS011;46967;48.876;2.136;2022-09-27T02:13:44;7.75;;;1.30;;
61085;SDS011;46967;48.876;2.136;2022-09-27T02:24:18;7.75;;;1.35;;
61085;SDS011;46967;48.876;2.136;2022-09-27T02:26:48;10.15;;;1.88;;
61085;SDS011;46967;48.876;2.136;2022-09-27T02:29:23;5.68;;;1.17;;
61085;SDS011;46967;48.876;2.136;2022-09-27T02:31:58;5.32;;;1.08;;
61085;SDS011;46967;48.876;2.136;2022-09-27T02:34:24;4.28;;;1.08;;
61085;SDS011;46967;48.876;2.136;2022-09-27T02:36:53;3.33;;;1.05;;
61085;SDS011;46967;48.876;2.136;2022-09-27T02:39:19;9.07;;;1.33;;
61085;SDS011;46967;48.876;2.136;2022-09-27T02:41:45;8.23;;;1.17;;
61085;SDS011;46967;48.876;2.136;2022-09-27T02:44:11;7.35;;;1.20;;
61085;SDS011;46967;48.876;2.136;2022-09-27T03:00:17;6.50;;;1.23;;
61085;SDS011;46967;48.876;2.136;2022-09-27T03:05:16;4.93;;;1.20;;
61085;SDS011;46967;48.876;2.136;2022-09-27T03:07:44;5.93;;;1.48;;
61085;SDS011;46967;48.876;2.136;2022-09-27T03:10:17;5.10;;;1.40;;
61085;SDS011;46967;48.876;2.136;2022-09-27T03:12:44;5.95;;;1.50;;
61085;SDS011;46967;48.876;2.136;2022-09-27T03:15:10;3.47;;;0.90;;
61085;SDS011;46967;48.876;2.136;2022-09-27T03:17:36;7.43;;;1.20;;
61085;SDS011;46967;48.876;2.136;2022-09-27T03:20:01;6.50;;;1.15;;
61085;SDS011;46967;48.876;2.136;2022-09-27T03:22:27;6.68;;;1.60;;
61085;SDS011;46967;48.876;2.136;2022-09-27T03:24:53;6.47;;;1.20;;
61085;SDS011;46967;48.876;2.136;2022-09-27T03:27:18;8.45;;;1.10;;
61085;SDS011;46967;48.876;2.136;2022-09-27T03:29:43;5.30;;;1.08;;
61085;SDS011;46967;48.876;2.136;2022-09-27T03:32:09;8.68;;;1.55;;
61085;SDS011;46967;48.876;2.136;2022-09-27T03:34:34;4.53;;;1.10;;
61085;SDS011;46967;48.876;2.136;2022-09-27T03:37:00;8.18;;;1.20;;
61085;SDS011;46967;48.876;2.136;2022-09-27T03:39:26;5.05;;;1.25;;
61085;SDS011;46967;48.876;2.136;2022-09-27T03:41:51;5.03;;;1.15;;
61085;SDS011;46967;48.876;2.136;2022-09-27T03:44:17;4.35;;;0.77;;
61085;SDS011;46967;48.876;2.136;2022-09-27T03:46:42;3.65;;;1.02;;
61085;SDS011;46967;48.876;2.136;2022-09-27T03:49:07;6.25;;;1.50;;
61085;SDS011;46967;48.876;2.136;2022-09-27T03:51:33;4.60;;;1.30;;
61085;SDS011;46967;48.876;2.136;2022-09-27T03:53:58;8.25;;;1.40;;
61085;SDS011;46967;48.876;2.136;2022-09-27T03:56:23;7.97;;;1.27;;
61085;SDS011;46967;48.876;2.136;2022-09-27T03:58:49;4.78;;;1.00;;
61085;SDS011;46967;48.876;2.136;2022-09-27T04:01:14;7.03;;;1.27;;
61085;SDS011;46967;48.876;2.136;2022-09-27T04:03:39;3.03;;;1.10;;
61085;SDS011;46967;48.876;2.136;2022-09-27T04:06:05;7.00;;;1.13;;
61085;SDS011;46967;48.876;2.136;2022-09-27T04:08:30;6.88;;;1.05;;
61085;SDS011;46967;48.876;2.136;2022-09-27T04:10:56;7.82;;;1.25;;
61085;SDS011;46967;48.876;2.136;2022-09-27T04:13:21;8.48;;;1.88;;
61085;SDS011;46967;48.876;2.136;2022-09-27T04:15:47;4.57;;;1.00;;
61085;SDS011;46967;48.876;2.136;2022-09-27T04:18:12;4.60;;;1.10;;
61085;SDS011;46967;48.876;2.136;2022-09-27T04:20:38;13.35;;;1.50;;
61085;SDS011;46967;48.876;2.136;2022-09-27T04:23:03;4.18;;;0.80;;
61085;SDS011;46967;48.876;2.136;2022-09-27T04:25:29;6.05;;;1.00;;
61085;SDS011;46967;48.876;2.136;2022-09-27T04:27:57;4.82;;;1.33;;
61085;SDS011;46967;48.876;2.136;2022-09-27T04:30:22;6.75;;;1.00;;
61085;SDS011;46967;48.876;2.136;2022-09-27T04:32:50;8.60;;;1.15;;
61085;SDS011;46967;48.876;2.136;2022-09-27T04:35:16;5.80;;;0.90;;
61085;SDS011;46967;48.876;2.136;2022-09-27T04:38:00;5.03;;;0.80;;
61085;SDS011;46967;48.876;2.136;2022-09-27T04:40:25;5.65;;;1.00;;
61085;SDS011;46967;48.876;2.136;2022-09-27T04:42:51;8.00;;;1.40;;
61085;SDS011;46967;48.876;2.136;2022-09-27T04:45:17;6.35;;;0.98;;
61085;SDS011;46967;48.876;2.136;2022-09-27T04:47:43;4.57;;;1.02;;
61085;SDS011;46967;48.876;2.136;2022-09-27T04:50:10;4.20;;;1.15;;
61085;SDS011;46967;48.876;2.136;2022-09-27T04:52:36;9.55;;;1.38;;
61085;SDS011;46967;48.876;2.136;2022-09-27T04:55:02;8.15;;;1.30;;
61085;SDS011;46967;48.876;2.136;2022-09-27T04:57:28;2.42;;;0.90;;
61085;SDS011;46967;48.876;2.136;2022-09-27T04:59:53;4.97;;;1.48;;
61085;SDS011;46967;48.876;2.136;2022-09-27T05:02:18;5.05;;;1.33;;
61085;SDS011;46967;48.876;2.136;2022-09-27T05:04:44;6.40;;;1.15;;
61085;SDS011;46967;48.876;2.136;2022-09-27T05:07:09;4.05;;;1.00;;
61085;SDS011;46967;48.876;2.136;2022-09-27T05:09:34;6.28;;;1.00;;
61085;SDS011;46967;48.876;2.136;2022-09-27T05:12:00;4.65;;;1.20;;
61085;SDS011;46967;48.876;2.136;2022-09-27T05:14:25;5.28;;;0.90;;
61085;SDS011;46967;48.876;2.136;2022-09-27T05:16:51;7.72;;;1.10;;
61085;SDS011;46967;48.876;2.136;2022-09-27T05:19:17;8.10;;;1.33;;
61085;SDS011;46967;48.876;2.136;2022-09-27T05:21:43;10.13;;;1.27;;
61085;SDS011;46967;48.876;2.136;2022-09-27T05:24:08;6.07;;;1.48;;
61085;SDS011;46967;48.876;2.136;2022-09-27T05:26:33;6.97;;;1.30;;
61085;SDS011;46967;48.876;2.136;2022-09-27T05:28:59;9.55;;;0.90;;
61085;SDS011;46967;48.876;2.136;2022-09-27T05:31:24;4.13;;;1.42;;
61085;SDS011;46967;48.876;2.136;2022-09-27T05:33:50;11.88;;;1.33;;
61085;SDS011;46967;48.876;2.136;2022-09-27T05:36:16;6.22;;;1.20;;
61085;SDS011;46967;48.876;2.136;2022-09-27T05:38:42;7.22;;;1.25;;
61085;SDS011;46967;48.876;2.136;2022-09-27T05:41:07;8.25;;;1.02;;
61085;SDS011;46967;48.876;2.136;2022-09-27T05:43:33;8.82;;;1.50;;
61085;SDS011;46967;48.876;2.136;2022-09-27T05:45:59;11.10;;;1.73;;
61085;SDS011;46967;48.876;2.136;2022-09-27T05:48:24;5.93;;;1.40;;
61085;SDS011;46967;48.876;2.136;2022-09-27T05:50:50;4.70;;;1.10;;
61085;SDS011;46967;48.876;2.136;2022-09-27T05:53:15;5.88;;;0.90;;
61085;SDS011;46967;48.876;2.136;2022-09-27T05:55:41;7.53;;;1.10;;
61085;SDS011;46967;48.876;2.136;2022-09-27T05:58:07;5.90;;;1.05;;
61085;SDS011;46967;48.876;2.136;2022-09-27T06:00:34;5.57;;;1.27;;
61085;SDS011;46967;48.876;2.136;2022-09-27T06:03:01;9.73;;;1.40;;
61085;SDS011;46967;48.876;2.136;2022-09-27T06:05:28;7.32;;;1.45;;
61085;SDS011;46967;48.876;2.136;2022-09-27T06:07:59;6.07;;;1.30;;
61085;SDS011;46967;48.876;2.136;2022-09-27T06:10:26;10.95;;;1.85;;
61085;SDS011;46967;48.876;2.136;2022-09-27T06:12:52;4.75;;;1.20;;
61085;SDS011;46967;48.876;2.136;2022-09-27T06:15:17;6.65;;;1.08;;
61085;SDS011;46967;48.876;2.136;2022-09-27T06:17:43;10.95;;;1.35;;
61085;SDS011;46967;48.876;2.136;2022-09-27T06:20:08;8.30;;;1.40;;
61085;SDS011;46967;48.876;2.136;2022-09-27T06:22:34;6.30;;;1.20;;
61085;SDS011;46967;48.876;2.136;2022-09-27T06:25:00;8.52;;;1.33;;
61085;SDS011;46967;48.876;2.136;2022-09-27T06:27:27;5.55;;;1.23;;
61085;SDS011;46967;48.876;2.136;2022-09-27T06:29:53;3.70;;;0.90;;
61085;SDS011;46967;48.876;2.136;2022-09-27T06:32:20;4.07;;;1.20;;
61085;SDS011;46967;48.876;2.136;2022-09-27T06:34:46;8.10;;;1.00;;
61085;SDS011;46967;48.876;2.136;2022-09-27T06:37:11;6.78;;;1.20;;
61085;SDS011;46967;48.876;2.136;2022-09-27T06:39:36;6.80;;;0.98;;
61085;SDS011;46967;48.876;2.136;2022-09-27T06:42:03;4.80;;;1.10;;
61085;SDS011;46967;48.876;2.136;2022-09-27T06:44:28;5.40;;;1.00;;
61085;SDS011;46967;48.876;2.136;2022-09-27T06:46:53;6.22;;;0.90;;
61085;SDS011;46967;48.876;2.136;2022-09-27T06:49:19;5.35;;;1.40;;
61085;SDS011;46967;48.876;2.136;2022-09-27T06:51:46;6.70;;;1.20;;
61085;SDS011;46967;48.876;2.136;2022-09-27T06:54:13;7.10;;;1.10;;
61085;SDS011;46967;48.876;2.136;2022-09-27T06:56:38;7.95;;;1.75;;
61085;SDS011;46967;48.876;2.136;2022-09-27T06:59:04;6.18;;;1.00;;
61085;SDS011;46967;48.876;2.136;2022-09-27T07:01:48;5.25;;;1.05;;
61085;SDS011;46967;48.876;2.136;2022-09-27T07:04:16;4.40;;;1.00;;
61085;SDS011;46967;48.876;2.136;2022-09-27T07:06:42;7.35;;;1.33;;
61085;SDS011;46967;48.876;2.136;2022-09-27T07:09:08;9.20;;;1.20;;
61085;SDS011;46967;48.876;2.136;2022-09-27T07:11:34;4.65;;;1.08;;
61085;SDS011;46967;48.876;2.136;2022-09-27T07:14:02;2.95;;;0.90;;
61085;SDS011;46967;48.876;2.136;2022-09-27T07:16:28;8.63;;;1.50;;
61085;SDS011;46967;48.876;2.136;2022-09-27T07:18:55;3.90;;;1.00;;
61085;SDS011;46967;48.876;2.136;2022-09-27T07:21:21;5.40;;;1.13;;
61085;SDS011;46967;48.876;2.136;2022-09-27T07:23:47;3.10;;;1.00;;
61085;SDS011;46967;48.876;2.136;2022-09-27T07:26:13;6.60;;;1.45;;
61085;SDS011;46967;48.876;2.136;2022-09-27T07:28:38;5.97;;;1.05;;
61085;SDS011;46967;48.876;2.136;2022-09-27T07:31:05;7.18;;;1.20;;
61085;SDS011;46967;48.876;2.136;2022-09-27T07:33:31;5.93;;;1.00;;
61085;SDS011;46967;48.876;2.136;2022-09-27T07:35:57;4.63;;;1.25;;
61085;SDS011;46967;48.876;2.136;2022-09-27T07:38:22;7.40;;;1.17;;
61085;SDS011;46967;48.876;2.136;2022-09-27T07:40:48;6.63;;;1.00;;
61085;SDS011;46967;48.876;2.136;2022-09-27T07:43:13;4.68;;;1.27;;
61085;SDS011;46967;48.876;2.136;2022-09-27T07:45:39;5.35;;;1.25;;
61085;SDS011;46967;48.876;2.136;2022-09-27T07:48:09;1.55;;;0.73;;
61085;SDS011;46967;48.876;2.136;2022-09-27T07:50:37;10.63;;;2.10;;
61085;SDS011;46967;48.876;2.136;2022-09-27T07:53:03;6.28;;;1.30;;
61085;SDS011;46967;48.876;2.136;2022-09-27T07:55:29;7.97;;;1.35;;
61085;SDS011;46967;48.876;2.136;2022-09-27T07:58:04;8.32;;;1.38;;
61085;SDS011;46967;48.876;2.136;2022-09-27T08:00:32;2.80;;;0.73;;
61085;SDS011;46967;48.876;2.136;2022-09-27T08:02:59;4.68;;;1.00;;
61085;SDS011;46967;48.876;2.136;2022-09-27T08:05:28;4.28;;;0.80;;
61085;SDS011;46967;48.876;2.136;2022-09-27T08:07:54;7.65;;;1.33;;
61085;SDS011;46967;48.876;2.136;2022-09-27T08:10:22;5.80;;;1.33;;
61085;SDS011;46967;48.876;2.136;2022-09-27T08:12:51;5.38;;;1.30;;
61085;SDS011;46967;48.876;2.136;2022-09-27T08:15:16;5.72;;;0.98;;
61085;SDS011;46967;48.876;2.136;2022-09-27T08:17:42;4.57;;;0.90;;
61085;SDS011;46967;48.876;2.136;2022-09-27T08:20:07;3.83;;;0.80;;
61085;SDS011;46967;48.876;2.136;2022-09-27T08:22:38;6.65;;;1.42;;
61085;SDS011;46967;48.876;2.136;2022-09-27T08:25:05;2.50;;;1.00;;
61085;SDS011;46967;48.876;2.136;2022-09-27T08:27:31;2.47;;;1.00;;
61085;SDS011;46967;48.876;2.136;2022-09-27T08:29:56;4.22;;;1.00;;
61085;SDS011;46967;48.876;2.136;2022-09-27T08:32:22;5.38;;;0.80;;
61085;SDS011;46967;48.876;2.136;2022-09-27T08:34:47;5.18;;;1.30;;
61085;SDS011;46967;48.876;2.136;2022-09-27T08:37:13;3.35;;;1.10;;
61085;SDS011;46967;48.876;2.136;2022-09-27T08:39:38;5.03;;;0.93;;
61085;SDS011;46967;48.876;2.136;2022-09-27T08:42:12;5.72;;;1.10;;
61085;SDS011;46967;48.876;2.136;2022-09-27T08:48:01;2.97;;;0.90;;
61085;SDS011;46967;48.876;2.136;2022-09-27T08:50:30;4.70;;;0.77;;
61085;SDS011;46967;48.876;2.136;2022-09-27T08:53:03;4.55;;;1.20;;
61085;SDS011;46967;48.876;2.136;2022-09-27T08:55:39;4.45;;;1.17;;
61085;SDS011;46967;48.876;2.136;2022-09-27T09:01:00;3.33;;;0.75;;
61085;SDS011;46967;48.876;2.136;2022-09-27T09:03:28;2.88;;;0.80;;
61085;SDS011;46967;48.876;2.136;2022-09-27T09:25:59;5.07;;;0.90;;
61085;SDS011;46967;48.876;2.136;2022-09-27T09:33:40;2.50;;;0.80;;
61085;SDS011;46967;48.876;2.136;2022-09-27T09:39:19;6.95;;;0.88;;
61085;SDS011;46967;48.876;2.136;2022-09-27T09:45:01;5.03;;;0.80;;
61085;SDS011;46967;48.876;2.136;2022-09-27T09:50:19;3.65;;;0.70;;
61085;SDS011;46967;48.876;2.136;2022-09-27T09:52:58;1.17;;;0.55;;
61085;SDS011;46967;48.876;2.136;2022-09-27T09:55:36;2.45;;;0.60;;
61085;SDS011;46967;48.876;2.136;2022-09-27T10:01:39;3.10;;;0.73;;
61085;SDS011;46967;48.876;2.136;2022-09-27T10:04:05;5.28;;;1.08;;
61085;SDS011;46967;48.876;2.136;2022-09-27T10:06:34;1.67;;;0.60;;
61085;SDS011;46967;48.876;2.136;2022-09-27T10:09:00;5.70;;;0.70;;
61085;SDS011;46967;48.876;2.136;2022-09-27T10:11:30;6.45;;;1.10;;
61085;SDS011;46967;48.876;2.136;2022-09-27T10:14:04;5.20;;;0.80;;
61085;SDS011;46967;48.876;2.136;2022-09-27T10:16:38;2.75;;;0.70;;
61085;SDS011;46967;48.876;2.136;2022-09-27T10:19:06;3.13;;;0.93;;
61085;SDS011;46967;48.876;2.136;2022-09-27T10:21:33;4.70;;;0.77;;
61085;SDS011;46967;48.876;2.136;2022-09-27T10:24:08;3.25;;;0.65;;
61085;SDS011;46967;48.876;2.136;2022-09-27T10:26:36;6.95;;;0.95;;
61085;SDS011;46967;48.876;2.136;2022-09-27T10:31:44;5.07;;;0.90;;
61085;SDS011;46967;48.876;2.136;2022-09-27T10:37:02;4.53;;;1.42;;
61085;SDS011;46967;48.876;2.136;2022-09-27T10:39:30;2.67;;;0.93;;
61085;SDS011;46967;48.876;2.136;2022-09-27T10:41:56;3.10;;;0.95;;
61085;SDS011;46967;48.876;2.136;2022-09-27T10:44:25;3.65;;;0.93;;
61085;SDS011;46967;48.876;2.136;2022-09-27T10:46:54;5.97;;;0.80;;
61085;SDS011;46967;48.876;2.136;2022-09-27T10:49:27;3.83;;;0.90;;
61085;SDS011;46967;48.876;2.136;2022-09-27T10:51:57;5.03;;;1.83;;
61085;SDS011;46967;48.876;2.136;2022-09-27T10:54:25;1.85;;;0.73;;
61085;SDS011;46967;48.876;2.136;2022-09-27T10:56:54;5.07;;;1.42;;
61085;SDS011;46967;48.876;2.136;2022-09-27T10:59:32;5.07;;;1.17;;
61085;SDS011;46967;48.876;2.136;2022-09-27T11:02:02;3.40;;;0.90;;
61085;SDS011;46967;48.876;2.136;2022-09-27T11:04:31;8.40;;;1.63;;
61085;SDS011;46967;48.876;2.136;2022-09-27T11:07:06;2.10;;;0.87;;
61085;SDS011;46967;48.876;2.136;2022-09-27T11:09:46;6.50;;;1.00;;
61085;SDS011;46967;48.876;2.136;2022-09-27T11:12:16;9.07;;;1.00;;
61085;SDS011;46967;48.876;2.136;2022-09-27T11:14:47;5.55;;;0.80;;
61085;SDS011;46967;48.876;2.136;2022-09-27T11:30:24;4.28;;;1.17;;
61085;SDS011;46967;48.876;2.136;2022-09-27T11:38:31;6.78;;;1.70;;
61085;SDS011;46967;48.876;2.136;2022-09-27T11:57:51;6.25;;;1.38;;
61085;SDS011;46967;48.876;2.136;2022-09-27T12:00:53;6.82;;;1.55;;
61085;SDS011;46967;48.876;2.136;2022-09-27T12:03:24;10.13;;;1.50;;
61085;SDS011;46967;48.876;2.136;2022-09-27T12:06:15;8.73;;;2.03;;
61085;SDS011;46967;48.876;2.136;2022-09-27T12:11:48;9.35;;;1.92;;
61085;SDS011;46967;48.876;2.136;2022-09-27T12:16:54;13.50;;;2.20;;
61085;SDS011;46967;48.876;2.136;2022-09-27T12:19:22;16.23;;;2.30;;
61085;SDS011;46967;48.876;2.136;2022-09-27T12:21:51;12.25;;;1.85;;
61085;SDS011;46967;48.876;2.136;2022-09-27T12:24:21;12.10;;;1.50;;
61085;SDS011;46967;48.876;2.136;2022-09-27T12:26:49;7.93;;;1.67;;
61085;SDS011;46967;48.876;2.136;2022-09-27T12:29:26;12.18;;;1.50;;
61085;SDS011;46967;48.876;2.136;2022-09-27T12:37:31;8.82;;;1.77;;
61085;SDS011;46967;48.876;2.136;2022-09-27T12:40:05;14.13;;;2.25;;
61085;SDS011;46967;48.876;2.136;2022-09-27T12:51:09;8.52;;;2.25;;
61085;SDS011;46967;48.876;2.136;2022-09-27T12:59:16;7.95;;;1.73;;
61085;SDS011;46967;48.876;2.136;2022-09-27T13:10:02;6.88;;;1.40;;
61085;SDS011;46967;48.876;2.136;2022-09-27T13:12:51;10.50;;;1.73;;
61085;SDS011;46967;48.876;2.136;2022-09-27T13:17:56;6.43;;;1.83;;
61085;SDS011;46967;48.876;2.136;2022-09-27T13:20:36;8.63;;;2.05;;
61085;SDS011;46967;48.876;2.136;2022-09-27T13:25:59;8.45;;;2.08;;
61085;SDS011;46967;48.876;2.136;2022-09-27T13:31:08;13.68;;;2.22;;
61085;SDS011;46967;48.876;2.136;2022-09-27T13:33:44;8.80;;;1.63;;
61085;SDS011;46967;48.876;2.136;2022-09-27T13:38:58;8.20;;;1.60;;
61085;SDS011;46967;48.876;2.136;2022-09-27T13:41:36;8.43;;;2.08;;
61085;SDS011;46967;48.876;2.136;2022-09-27T13:49:39;10.27;;;1.83;;
61085;SDS011;46967;48.876;2.136;2022-09-27T13:54:59;9.00;;;1.77;;
61085;SDS011;46967;48.876;2.136;2022-09-27T14:00:32;9.98;;;2.10;;
61085;SDS011;46967;48.876;2.136;2022-09-27T14:05:37;11.25;;;1.88;;
61085;SDS011;46967;48.876;2.136;2022-09-27T14:08:05;10.75;;;1.75;;
61085;SDS011;46967;48.876;2.136;2022-09-27T14:10:44;10.50;;;2.00;;
61085;SDS011;46967;48.876;2.136;2022-09-27T14:13:09;10.15;;;1.38;;
61085;SDS011;46967;48.876;2.136;2022-09-27T14:15:40;11.40;;;2.45;;
61085;SDS011;46967;48.876;2.136;2022-09-27T14:18:09;8.45;;;1.85;;
61085;SDS011;46967;48.876;2.136;2022-09-27T14:20:37;9.50;;;1.98;;
61085;SDS011;46967;48.876;2.136;2022-09-27T14:25:38;11.30;;;1.90;;
61085;SDS011;46967;48.876;2.136;2022-09-27T14:28:43;13.50;;;1.95;;
61085;SDS011;46967;48.876;2.136;2022-09-27T14:33:42;12.10;;;1.85;;
61085;SDS011;46967;48.876;2.136;2022-09-27T14:39:20;10.10;;;1.98;;
61085;SDS011;46967;48.876;2.136;2022-09-27T14:41:48;11.10;;;2.20;;
61085;SDS011;46967;48.876;2.136;2022-09-27T14:44:17;11.55;;;2.55;;
61085;SDS011;46967;48.876;2.136;2022-09-27T14:46:43;11.00;;;2.30;;
61085;SDS011;46967;48.876;2.136;2022-09-27T14:49:23;13.43;;;2.47;;
61085;SDS011;46967;48.876;2.136;2022-09-27T14:51:49;11.27;;;2.15;;
61085;SDS011;46967;48.876;2.136;2022-09-27T14:54:23;10.27;;;1.90;;
61085;SDS011;46967;48.876;2.136;2022-09-27T14:56:50;7.80;;;1.88;;
61085;SDS011;46967;48.876;2.136;2022-09-27T14:59:25;8.50;;;1.85;;
61085;SDS011;46967;48.876;2.136;2022-09-27T15:01:58;8.23;;;2.45;;
61085;SDS011;46967;48.876;2.136;2022-09-27T15:04:25;10.55;;;1.95;;
61085;SDS011;46967;48.876;2.136;2022-09-27T15:06:53;14.18;;;2.38;;
61085;SDS011;46967;48.876;2.136;2022-09-27T15:09:19;12.35;;;2.22;;
61085;SDS011;46967;48.876;2.136;2022-09-27T15:11:47;8.15;;;1.65;;
61085;SDS011;46967;48.876;2.136;2022-09-27T15:14:18;12.15;;;2.33;;
61085;SDS011;46967;48.876;2.136;2022-09-27T15:16:46;9.88;;;2.97;;
61085;SDS011;46967;48.876;2.136;2022-09-27T15:21:41;9.07;;;1.92;;
61085;SDS011;46967;48.876;2.136;2022-09-27T15:24:32;9.13;;;2.20;;
61085;SDS011;46967;48.876;2.136;2022-09-27T15:27:22;15.35;;;2.47;;
61085;SDS011;46967;48.876;2.136;2022-09-27T15:29:53;14.38;;;2.67;;
61085;SDS011;46967;48.876;2.136;2022-09-27T15:32:21;10.77;;;2.50;;
61085;SDS011;46967;48.876;2.136;2022-09-27T15:34:48;16.65;;;3.00;;
61085;SDS011;46967;48.876;2.136;2022-09-27T15:37:22;10.70;;;2.08;;
61085;SDS011;46967;48.876;2.136;2022-09-27T15:39:51;14.85;;;2.30;;
61085;SDS011;46967;48.876;2.136;2022-09-27T15:42:17;18.38;;;3.10;;
61085;SDS011;46967;48.876;2.136;2022-09-27T15:44:53;11.98;;;2.35;;
61085;SDS011;46967;48.876;2.136;2022-09-27T15:55:12;12.98;;;2.58;;
61085;SDS011;46967;48.876;2.136;2022-09-27T15:57:41;18.35;;;3.50;;
61085;SDS011;46967;48.876;2.136;2022-09-27T16:00:11;12.15;;;2.05;;
61085;SDS011;46967;48.876;2.136;2022-09-27T16:02:38;15.85;;;2.30;;
61085;SDS011;46967;48.876;2.136;2022-09-27T16:05:03;11.30;;;2.13;;
61085;SDS011;46967;48.876;2.136;2022-09-27T16:07:29;18.88;;;3.13;;
61085;SDS011;46967;48.876;2.136;2022-09-27T16:09:54;16.77;;;2.72;;
61085;SDS011;46967;48.876;2.136;2022-09-27T16:12:20;12.48;;;2.55;;
61085;SDS011;46967;48.876;2.136;2022-09-27T16:14:46;14.88;;;3.65;;
61085;SDS011;46967;48.876;2.136;2022-09-27T16:17:12;17.15;;;4.35;;
61085;SDS011;46967;48.876;2.136;2022-09-27T16:19:38;20.35;;;3.95;;
61085;SDS011;46967;48.876;2.136;2022-09-27T16:22:03;20.92;;;5.68;;
61085;SDS011;46967;48.876;2.136;2022-09-27T16:24:29;15.35;;;2.90;;
61085;SDS011;46967;48.876;2.136;2022-09-27T16:26:56;15.02;;;3.55;;
61085;SDS011;46967;48.876;2.136;2022-09-27T16:29:21;16.63;;;3.63;;
61085;SDS011;46967;48.876;2.136;2022-09-27T16:31:46;15.13;;;2.58;;
61085;SDS011;46967;48.876;2.136;2022-09-27T16:34:12;15.30;;;2.55;;
61085;SDS011;46967;48.876;2.136;2022-09-27T16:36:37;19.17;;;3.53;;
61085;SDS011;46967;48.876;2.136;2022-09-27T16:39:07;15.00;;;2.65;;
61085;SDS011;46967;48.876;2.136;2022-09-27T16:41:36;15.77;;;2.60;;
61085;SDS011;46967;48.876;2.136;2022-09-27T16:44:09;16.17;;;2.33;;
61085;SDS011;46967;48.876;2.136;2022-09-27T16:46:38;22.42;;;3.40;;
61085;SDS011;46967;48.876;2.136;2022-09-27T16:49:05;17.45;;;3.42;;
61085;SDS011;46967;48.876;2.136;2022-09-27T16:51:50;20.83;;;3.35;;
61085;SDS011;46967;48.876;2.136;2022-09-27T16:54:25;20.00;;;4.15;;
61085;SDS011;46967;48.876;2.136;2022-09-27T16:56:53;15.40;;;3.20;;
61085;SDS011;46967;48.876;2.136;2022-09-27T16:59:19;22.23;;;2.83;;
61085;SDS011;46967;48.876;2.136;2022-09-27T17:01:45;16.10;;;3.72;;
61085;SDS011;46967;48.876;2.136;2022-09-27T17:04:11;19.13;;;3.50;;
61085;SDS011;46967;48.876;2.136;2022-09-27T17:06:38;22.55;;;3.22;;
61085;SDS011;46967;48.876;2.136;2022-09-27T17:09:04;17.20;;;3.60;;
61085;SDS011;46967;48.876;2.136;2022-09-27T17:11:29;14.23;;;2.65;;
61085;SDS011;46967;48.876;2.136;2022-09-27T17:13:55;15.52;;;2.80;;
61085;SDS011;46967;48.876;2.136;2022-09-27T17:16:21;23.58;;;3.30;;
61085;SDS011;46967;48.876;2.136;2022-09-27T17:18:47;19.38;;;5.63;;
61085;SDS011;46967;48.876;2.136;2022-09-27T17:21:12;14.73;;;3.17;;
61085;SDS011;46967;48.876;2.136;2022-09-27T17:23:38;23.00;;;4.10;;
61085;SDS011;46967;48.876;2.136;2022-09-27T17:26:08;24.33;;;3.47;;
61085;SDS011;46967;48.876;2.136;2022-09-27T17:28:39;29.13;;;3.60;;
61085;SDS011;46967;48.876;2.136;2022-09-27T17:31:07;17.25;;;3.42;;
61085;SDS011;46967;48.876;2.136;2022-09-27T17:33:42;20.90;;;3.92;;
61085;SDS011;46967;48.876;2.136;2022-09-27T17:36:22;24.02;;;3.78;;
61085;SDS011;46967;48.876;2.136;2022-09-27T17:38:50;15.35;;;3.75;;
61085;SDS011;46967;48.876;2.136;2022-09-27T17:41:20;22.50;;;3.90;;
61085;SDS011;46967;48.876;2.136;2022-09-27T17:43:50;16.90;;;3.35;;
61085;SDS011;46967;48.876;2.136;2022-09-27T17:46:20;27.05;;;4.90;;
61085;SDS011;46967;48.876;2.136;2022-09-27T17:48:47;22.63;;;4.00;;
61085;SDS011;46967;48.876;2.136;2022-09-27T17:51:31;23.50;;;4.50;;
61085;SDS011;46967;48.876;2.136;2022-09-27T17:53:59;23.10;;;4.23;;
61085;SDS011;46967;48.876;2.136;2022-09-27T17:56:25;22.92;;;5.25;;
61085;SDS011;46967;48.876;2.136;2022-09-27T17:58:52;24.08;;;3.90;;
61085;SDS011;46967;48.876;2.136;2022-09-27T18:01:18;18.52;;;3.70;;
61085;SDS011;46967;48.876;2.136;2022-09-27T18:03:45;15.50;;;3.88;;
61085;SDS011;46967;48.876;2.136;2022-09-27T18:06:12;19.92;;;3.90;;
61085;SDS011;46967;48.876;2.136;2022-09-27T18:08:40;19.17;;;3.40;;
61085;SDS011;46967;48.876;2.136;2022-09-27T18:11:07;18.13;;;4.00;;
61085;SDS011;46967;48.876;2.136;2022-09-27T18:13:43;22.90;;;4.10;;
61085;SDS011;46967;48.876;2.136;2022-09-27T18:18:36;15.05;;;3.72;;
61085;SDS011;46967;48.876;2.136;2022-09-27T18:21:10;18.70;;;3.63;;
61085;SDS011;46967;48.876;2.136;2022-09-27T18:23:43;23.38;;;3.50;;
61085;SDS011;46967;48.876;2.136;2022-09-27T18:26:09;26.08;;;4.10;;
61085;SDS011;46967;48.876;2.136;2022-09-27T18:28:36;21.42;;;2.85;;
61085;SDS011;46967;48.876;2.136;2022-09-27T18:31:04;20.70;;;3.28;;
61085;SDS011;46967;48.876;2.136;2022-09-27T18:33:37;18.70;;;3.72;;